sensor_id;sensor_type;location;lat;lon;timestamp;P1;durP1;ratioP1;P2;durP2;ratioP2
3141;SDS011;1581;51.568;6.998;2023-03-01T00:01:12;6.43;;;4.80;;
3141;SDS011;1581;51.568;6.998;2023-03-01T00:03:42;8.60;;;4.23;;
3141;SDS011;1581;51.568;6.998;2023-03-01T00:06:10;8.93;;;5.20;;
3141;SDS011;1581;51.568;6.998;2023-03-01T00:08:38;12.20;;;4.60;;
3141;SDS011;1581;51.568;6.998;2023-03-01T00:11:09;9.90;;;4.87;;
3141;SDS011;1581;51.568;6.998;2023-03-01T00:13:40;11.87;;;4.70;;
3141;SDS011;1581;51.568;6.998;2023-03-01T00:16:09;8.93;;;3.90;;
3141;SDS011;1581;51.568;6.998;2023-03-01T00:18:40;6.53;;;4.60;;
3141;SDS011;1581;51.568;6.998;2023-03-01T00:21:08;6.33;;;4.50;;
3141;SDS011;1581;51.568;6.998;2023-03-01T00:23:36;10.57;;;4.40;;
3141;SDS011;1581;51.568;6.998;2023-03-01T00:26:05;6.10;;;4.40;;
3141;SDS011;1581;51.568;6.998;2023-03-01T00:28:36;10.20;;;5.23;;
3141;SDS011;1581;51.568;6.998;2023-03-01T00:31:04;6.70;;;4.50;;
3141;SDS011;1581;51.568;6.998;2023-03-01T00:33:33;6.73;;;4.23;;
3141;SDS011;1581;51.568;6.998;2023-03-01T00:36:01;6.53;;;4.00;;
3141;SDS011;1581;51.568;6.998;2023-03-01T00:38:30;5.87;;;4.93;;
3141;SDS011;1581;51.568;6.998;2023-03-01T00:41:04;6.97;;;4.90;;
3141;SDS011;1581;51.568;6.998;2023-03-01T00:43:34;7.17;;;4.20;;
3141;SDS011;1581;51.568;6.998;2023-03-01T00:46:02;6.33;;;4.80;;
3141;SDS011;1581;51.568;6.998;2023-03-01T00:48:32;8.10;;;4.67;;
3141;SDS011;1581;51.568;6.998;2023-03-01T00:51:04;6.10;;;3.67;;
3141;SDS011;1581;51.568;6.998;2023-03-01T00:53:33;6.90;;;4.80;;
3141;SDS011;1581;51.568;6.998;2023-03-01T00:56:02;7.40;;;5.30;;
3141;SDS011;1581;51.568;6.998;2023-03-01T00:58:31;5.37;;;4.20;;
3141;SDS011;1581;51.568;6.998;2023-03-01T01:01:06;7.63;;;4.63;;
3141;SDS011;1581;51.568;6.998;2023-03-01T01:03:43;7.10;;;4.90;;
3141;SDS011;1581;51.568;6.998;2023-03-01T01:06:15;10.60;;;5.00;;
3141;SDS011;1581;51.568;6.998;2023-03-01T01:08:44;12.50;;;5.53;;
3141;SDS011;1581;51.568;6.998;2023-03-01T01:11:12;7.00;;;4.53;;
3141;SDS011;1581;51.568;6.998;2023-03-01T01:13:43;6.43;;;4.87;;
3141;SDS011;1581;51.568;6.998;2023-03-01T01:16:12;10.00;;;5.00;;
3141;SDS011;1581;51.568;6.998;2023-03-01T01:18:41;6.07;;;4.73;;
3141;SDS011;1581;51.568;6.998;2023-03-01T01:21:10;9.03;;;5.50;;
3141;SDS011;1581;51.568;6.998;2023-03-01T01:23:40;7.80;;;4.57;;
3141;SDS011;1581;51.568;6.998;2023-03-01T01:26:10;8.17;;;5.17;;
3141;SDS011;1581;51.568;6.998;2023-03-01T01:28:42;7.80;;;4.40;;
3141;SDS011;1581;51.568;6.998;2023-03-01T01:31:10;6.03;;;4.80;;
3141;SDS011;1581;51.568;6.998;2023-03-01T01:33:41;5.60;;;4.63;;
3141;SDS011;1581;51.568;6.998;2023-03-01T01:36:09;7.47;;;5.33;;
3141;SDS011;1581;51.568;6.998;2023-03-01T01:38:38;12.30;;;5.37;;
3141;SDS011;1581;51.568;6.998;2023-03-01T01:41:08;8.17;;;4.90;;
3141;SDS011;1581;51.568;6.998;2023-03-01T01:43:38;6.07;;;4.80;;
3141;SDS011;1581;51.568;6.998;2023-03-01T01:46:13;6.97;;;4.97;;
3141;SDS011;1581;51.568;6.998;2023-03-01T01:48:55;6.90;;;4.50;;
3141;SDS011;1581;51.568;6.998;2023-03-01T01:51:28;5.63;;;4.63;;
3141;SDS011;1581;51.568;6.998;2023-03-01T01:54:05;5.53;;;4.60;;
3141;SDS011;1581;51.568;6.998;2023-03-01T01:56:36;11.23;;;5.53;;
3141;SDS011;1581;51.568;6.998;2023-03-01T01:59:05;6.33;;;5.17;;
3141;SDS011;1581;51.568;6.998;2023-03-01T02:01:35;7.83;;;5.63;;
3141;SDS011;1581;51.568;6.998;2023-03-01T02:04:02;9.53;;;4.90;;
3141;SDS011;1581;51.568;6.998;2023-03-01T02:06:32;5.93;;;4.47;;
3141;SDS011;1581;51.568;6.998;2023-03-01T02:09:07;5.23;;;4.57;;
3141;SDS011;1581;51.568;6.998;2023-03-01T02:11:40;9.47;;;5.53;;
3141;SDS011;1581;51.568;6.998;2023-03-01T02:14:10;9.60;;;5.17;;
3141;SDS011;1581;51.568;6.998;2023-03-01T02:16:39;8.13;;;5.40;;
3141;SDS011;1581;51.568;6.998;2023-03-01T02:19:08;6.47;;;4.77;;
3141;SDS011;1581;51.568;6.998;2023-03-01T02:21:46;5.20;;;4.60;;
3141;SDS011;1581;51.568;6.998;2023-03-01T02:24:23;5.50;;;4.40;;
3141;SDS011;1581;51.568;6.998;2023-03-01T02:27:00;7.37;;;4.23;;
3141;SDS011;1581;51.568;6.998;2023-03-01T02:29:29;6.70;;;5.37;;
3141;SDS011;1581;51.568;6.998;2023-03-01T02:31:58;6.27;;;4.40;;
3141;SDS011;1581;51.568;6.998;2023-03-01T02:34:28;8.20;;;5.07;;
3141;SDS011;1581;51.568;6.998;2023-03-01T02:37:00;7.97;;;5.83;;
3141;SDS011;1581;51.568;6.998;2023-03-01T02:39:32;6.50;;;4.73;;
3141;SDS011;1581;51.568;6.998;2023-03-01T02:42:07;6.27;;;4.73;;
3141;SDS011;1581;51.568;6.998;2023-03-01T02:44:42;5.23;;;4.33;;
3141;SDS011;1581;51.568;6.998;2023-03-01T02:47:09;6.03;;;4.57;;
3141;SDS011;1581;51.568;6.998;2023-03-01T02:49:37;7.10;;;5.77;;
3141;SDS011;1581;51.568;6.998;2023-03-01T02:52:21;7.77;;;5.07;;
3141;SDS011;1581;51.568;6.998;2023-03-01T02:55:01;8.67;;;5.60;;
3141;SDS011;1581;51.568;6.998;2023-03-01T02:57:33;6.27;;;5.37;;
3141;SDS011;1581;51.568;6.998;2023-03-01T03:00:07;8.20;;;5.40;;
3141;SDS011;1581;51.568;6.998;2023-03-01T03:02:44;8.53;;;5.10;;
3141;SDS011;1581;51.568;6.998;2023-03-01T03:05:13;6.33;;;5.00;;
3141;SDS011;1581;51.568;6.998;2023-03-01T03:07:44;10.27;;;6.03;;
3141;SDS011;1581;51.568;6.998;2023-03-01T03:10:14;10.13;;;5.13;;
3141;SDS011;1581;51.568;6.998;2023-03-01T03:12:48;15.17;;;5.70;;
3141;SDS011;1581;51.568;6.998;2023-03-01T03:15:19;6.07;;;5.40;;
3141;SDS011;1581;51.568;6.998;2023-03-01T03:17:47;8.57;;;6.30;;
3141;SDS011;1581;51.568;6.998;2023-03-01T03:20:17;6.90;;;5.40;;
3141;SDS011;1581;51.568;6.998;2023-03-01T03:22:50;10.43;;;5.07;;
3141;SDS011;1581;51.568;6.998;2023-03-01T03:25:20;9.30;;;5.60;;
3141;SDS011;1581;51.568;6.998;2023-03-01T03:27:49;8.53;;;4.70;;
3141;SDS011;1581;51.568;6.998;2023-03-01T03:30:23;7.87;;;5.77;;
3141;SDS011;1581;51.568;6.998;2023-03-01T03:32:53;9.80;;;5.83;;
3141;SDS011;1581;51.568;6.998;2023-03-01T03:35:23;7.43;;;5.50;;
3141;SDS011;1581;51.568;6.998;2023-03-01T03:37:55;7.30;;;5.60;;
3141;SDS011;1581;51.568;6.998;2023-03-01T03:40:32;8.20;;;5.47;;
3141;SDS011;1581;51.568;6.998;2023-03-01T03:43:02;8.50;;;5.60;;
3141;SDS011;1581;51.568;6.998;2023-03-01T03:45:33;7.70;;;6.33;;
3141;SDS011;1581;51.568;6.998;2023-03-01T03:48:02;11.33;;;6.17;;
3141;SDS011;1581;51.568;6.998;2023-03-01T03:50:31;8.57;;;5.43;;
3141;SDS011;1581;51.568;6.998;2023-03-01T03:53:00;7.33;;;5.80;;
3141;SDS011;1581;51.568;6.998;2023-03-01T03:55:29;9.70;;;5.47;;
3141;SDS011;1581;51.568;6.998;2023-03-01T03:58:00;10.80;;;5.77;;
3141;SDS011;1581;51.568;6.998;2023-03-01T04:00:36;10.30;;;5.77;;
3141;SDS011;1581;51.568;6.998;2023-03-01T04:03:07;9.03;;;5.90;;
3141;SDS011;1581;51.568;6.998;2023-03-01T04:05:36;34.83;;;6.77;;
3141;SDS011;1581;51.568;6.998;2023-03-01T04:08:05;9.63;;;5.47;;
3141;SDS011;1581;51.568;6.998;2023-03-01T04:10:34;7.30;;;5.60;;
3141;SDS011;1581;51.568;6.998;2023-03-01T04:13:04;7.20;;;4.87;;
3141;SDS011;1581;51.568;6.998;2023-03-01T04:15:33;6.57;;;5.80;;
3141;SDS011;1581;51.568;6.998;2023-03-01T04:18:03;9.43;;;6.57;;
3141;SDS011;1581;51.568;6.998;2023-03-01T04:20:36;6.70;;;5.10;;
3141;SDS011;1581;51.568;6.998;2023-03-01T04:23:05;7.60;;;5.70;;
3141;SDS011;1581;51.568;6.998;2023-03-01T04:25:39;8.33;;;5.50;;
3141;SDS011;1581;51.568;6.998;2023-03-01T04:28:08;9.90;;;5.40;;
3141;SDS011;1581;51.568;6.998;2023-03-01T04:30:36;10.17;;;5.40;;
3141;SDS011;1581;51.568;6.998;2023-03-01T04:33:08;10.13;;;5.60;;
3141;SDS011;1581;51.568;6.998;2023-03-01T04:35:40;6.70;;;5.30;;
3141;SDS011;1581;51.568;6.998;2023-03-01T04:38:09;9.37;;;5.93;;
3141;SDS011;1581;51.568;6.998;2023-03-01T04:40:37;7.37;;;5.30;;
3141;SDS011;1581;51.568;6.998;2023-03-01T04:43:08;7.43;;;5.93;;
3141;SDS011;1581;51.568;6.998;2023-03-01T04:45:36;7.80;;;5.20;;
3141;SDS011;1581;51.568;6.998;2023-03-01T04:48:04;6.90;;;5.50;;
3141;SDS011;1581;51.568;6.998;2023-03-01T04:50:34;6.93;;;5.23;;
3141;SDS011;1581;51.568;6.998;2023-03-01T04:53:02;8.23;;;5.87;;
3141;SDS011;1581;51.568;6.998;2023-03-01T04:55:30;10.60;;;5.50;;
3141;SDS011;1581;51.568;6.998;2023-03-01T04:57:57;10.20;;;5.90;;
3141;SDS011;1581;51.568;6.998;2023-03-01T05:00:25;11.20;;;6.40;;
3141;SDS011;1581;51.568;6.998;2023-03-01T05:02:54;6.87;;;5.47;;
3141;SDS011;1581;51.568;6.998;2023-03-01T05:05:25;7.07;;;5.40;;
3141;SDS011;1581;51.568;6.998;2023-03-01T05:07:57;7.73;;;5.60;;
3141;SDS011;1581;51.568;6.998;2023-03-01T05:10:27;14.63;;;5.90;;
3141;SDS011;1581;51.568;6.998;2023-03-01T05:12:56;10.93;;;6.10;;
3141;SDS011;1581;51.568;6.998;2023-03-01T05:15:25;10.87;;;5.90;;
3141;SDS011;1581;51.568;6.998;2023-03-01T05:17:54;13.10;;;6.40;;
3141;SDS011;1581;51.568;6.998;2023-03-01T05:20:27;8.60;;;6.40;;
3141;SDS011;1581;51.568;6.998;2023-03-01T05:22:58;11.50;;;6.53;;
3141;SDS011;1581;51.568;6.998;2023-03-01T05:25:30;8.30;;;5.73;;
3141;SDS011;1581;51.568;6.998;2023-03-01T05:27:59;10.93;;;6.07;;
3141;SDS011;1581;51.568;6.998;2023-03-01T05:30:30;10.50;;;6.20;;
3141;SDS011;1581;51.568;6.998;2023-03-01T05:33:00;10.53;;;6.90;;
3141;SDS011;1581;51.568;6.998;2023-03-01T05:35:28;7.80;;;5.97;;
3141;SDS011;1581;51.568;6.998;2023-03-01T05:38:00;9.17;;;5.73;;
3141;SDS011;1581;51.568;6.998;2023-03-01T05:40:28;8.97;;;6.77;;
3141;SDS011;1581;51.568;6.998;2023-03-01T05:42:56;10.07;;;6.33;;
3141;SDS011;1581;51.568;6.998;2023-03-01T05:45:24;12.93;;;7.23;;
3141;SDS011;1581;51.568;6.998;2023-03-01T05:47:53;12.73;;;7.03;;
3141;SDS011;1581;51.568;6.998;2023-03-01T05:50:25;10.57;;;7.30;;
3141;SDS011;1581;51.568;6.998;2023-03-01T05:52:58;10.63;;;6.03;;
3141;SDS011;1581;51.568;6.998;2023-03-01T05:55:31;6.77;;;6.03;;
3141;SDS011;1581;51.568;6.998;2023-03-01T05:57:59;11.00;;;6.33;;
3141;SDS011;1581;51.568;6.998;2023-03-01T06:00:28;13.40;;;6.07;;
3141;SDS011;1581;51.568;6.998;2023-03-01T06:02:58;14.70;;;6.30;;
3141;SDS011;1581;51.568;6.998;2023-03-01T06:05:26;7.33;;;6.00;;
3141;SDS011;1581;51.568;6.998;2023-03-01T06:07:55;10.70;;;6.20;;
3141;SDS011;1581;51.568;6.998;2023-03-01T06:10:27;15.20;;;7.20;;
3141;SDS011;1581;51.568;6.998;2023-03-01T06:12:55;8.77;;;6.03;;
3141;SDS011;1581;51.568;6.998;2023-03-01T06:15:24;14.67;;;6.30;;
3141;SDS011;1581;51.568;6.998;2023-03-01T06:17:53;12.20;;;6.97;;
3141;SDS011;1581;51.568;6.998;2023-03-01T06:20:23;7.93;;;6.10;;
3141;SDS011;1581;51.568;6.998;2023-03-01T06:22:53;10.10;;;6.23;;
3141;SDS011;1581;51.568;6.998;2023-03-01T06:25:27;10.53;;;6.90;;
3141;SDS011;1581;51.568;6.998;2023-03-01T06:27:57;8.60;;;6.40;;
3141;SDS011;1581;51.568;6.998;2023-03-01T06:30:27;9.43;;;5.70;;
3141;SDS011;1581;51.568;6.998;2023-03-01T06:32:58;9.37;;;5.73;;
3141;SDS011;1581;51.568;6.998;2023-03-01T06:35:29;6.80;;;5.20;;
3141;SDS011;1581;51.568;6.998;2023-03-01T06:38:02;10.07;;;6.43;;
3141;SDS011;1581;51.568;6.998;2023-03-01T06:40:35;14.77;;;6.37;;
3141;SDS011;1581;51.568;6.998;2023-03-01T06:43:07;14.67;;;6.67;;
3141;SDS011;1581;51.568;6.998;2023-03-01T06:45:37;8.80;;;6.27;;
3141;SDS011;1581;51.568;6.998;2023-03-01T06:48:07;8.93;;;6.13;;
3141;SDS011;1581;51.568;6.998;2023-03-01T06:50:36;12.67;;;6.40;;
3141;SDS011;1581;51.568;6.998;2023-03-01T06:53:07;9.20;;;5.73;;
3141;SDS011;1581;51.568;6.998;2023-03-01T06:55:38;7.50;;;5.70;;
3141;SDS011;1581;51.568;6.998;2023-03-01T06:58:08;7.70;;;5.87;;
3141;SDS011;1581;51.568;6.998;2023-03-01T07:00:39;11.57;;;6.37;;
3141;SDS011;1581;51.568;6.998;2023-03-01T07:03:09;7.67;;;6.10;;
3141;SDS011;1581;51.568;6.998;2023-03-01T07:05:39;10.00;;;5.80;;
3141;SDS011;1581;51.568;6.998;2023-03-01T07:08:10;9.90;;;7.27;;
3141;SDS011;1581;51.568;6.998;2023-03-01T07:10:40;7.30;;;6.00;;
3141;SDS011;1581;51.568;6.998;2023-03-01T07:13:08;13.57;;;7.00;;
3141;SDS011;1581;51.568;6.998;2023-03-01T07:15:36;12.07;;;6.90;;
3141;SDS011;1581;51.568;6.998;2023-03-01T07:18:03;8.90;;;6.50;;
3141;SDS011;1581;51.568;6.998;2023-03-01T07:20:31;11.90;;;7.20;;
3141;SDS011;1581;51.568;6.998;2023-03-01T07:22:59;11.07;;;6.17;;
3141;SDS011;1581;51.568;6.998;2023-03-01T07:25:26;10.83;;;6.30;;
3141;SDS011;1581;51.568;6.998;2023-03-01T07:27:56;12.80;;;7.30;;
3141;SDS011;1581;51.568;6.998;2023-03-01T07:30:23;11.63;;;7.40;;
3141;SDS011;1581;51.568;6.998;2023-03-01T07:32:53;15.33;;;6.47;;
3141;SDS011;1581;51.568;6.998;2023-03-01T07:35:21;9.50;;;6.33;;
3141;SDS011;1581;51.568;6.998;2023-03-01T07:37:50;9.53;;;6.47;;
3141;SDS011;1581;51.568;6.998;2023-03-01T07:40:18;10.83;;;5.93;;
3141;SDS011;1581;51.568;6.998;2023-03-01T07:42:46;11.53;;;7.13;;
3141;SDS011;1581;51.568;6.998;2023-03-01T07:45:15;9.37;;;6.77;;
3141;SDS011;1581;51.568;6.998;2023-03-01T07:47:43;12.50;;;7.30;;
3141;SDS011;1581;51.568;6.998;2023-03-01T07:50:11;7.60;;;6.00;;
3141;SDS011;1581;51.568;6.998;2023-03-01T07:52:40;10.70;;;6.37;;
3141;SDS011;1581;51.568;6.998;2023-03-01T07:55:09;12.37;;;6.07;;
3141;SDS011;1581;51.568;6.998;2023-03-01T07:57:37;9.30;;;6.50;;
3141;SDS011;1581;51.568;6.998;2023-03-01T08:00:06;10.60;;;5.97;;
3141;SDS011;1581;51.568;6.998;2023-03-01T08:02:38;7.37;;;5.70;;
3141;SDS011;1581;51.568;6.998;2023-03-01T08:05:08;9.90;;;6.53;;
3141;SDS011;1581;51.568;6.998;2023-03-01T08:07:36;11.87;;;6.60;;
3141;SDS011;1581;51.568;6.998;2023-03-01T08:10:04;10.10;;;5.90;;
3141;SDS011;1581;51.568;6.998;2023-03-01T08:12:32;10.17;;;5.80;;
3141;SDS011;1581;51.568;6.998;2023-03-01T08:15:00;12.37;;;6.73;;
3141;SDS011;1581;51.568;6.998;2023-03-01T08:17:28;10.20;;;6.20;;
3141;SDS011;1581;51.568;6.998;2023-03-01T08:19:57;11.33;;;6.30;;
3141;SDS011;1581;51.568;6.998;2023-03-01T08:22:25;11.37;;;5.73;;
3141;SDS011;1581;51.568;6.998;2023-03-01T08:24:53;14.63;;;7.37;;
3141;SDS011;1581;51.568;6.998;2023-03-01T08:27:21;7.90;;;6.37;;
3141;SDS011;1581;51.568;6.998;2023-03-01T08:29:48;7.90;;;6.40;;
3141;SDS011;1581;51.568;6.998;2023-03-01T08:32:16;9.03;;;6.70;;
3141;SDS011;1581;51.568;6.998;2023-03-01T08:34:47;9.07;;;6.10;;
3141;SDS011;1581;51.568;6.998;2023-03-01T08:37:16;16.93;;;7.20;;
3141;SDS011;1581;51.568;6.998;2023-03-01T08:39:44;9.70;;;6.60;;
3141;SDS011;1581;51.568;6.998;2023-03-01T08:42:12;9.37;;;6.13;;
3141;SDS011;1581;51.568;6.998;2023-03-01T08:44:40;10.27;;;6.30;;
3141;SDS011;1581;51.568;6.998;2023-03-01T08:47:08;10.10;;;7.30;;
3141;SDS011;1581;51.568;6.998;2023-03-01T08:49:36;16.87;;;8.00;;
3141;SDS011;1581;51.568;6.998;2023-03-01T08:52:04;12.40;;;7.10;;
3141;SDS011;1581;51.568;6.998;2023-03-01T08:54:33;15.67;;;8.83;;
3141;SDS011;1581;51.568;6.998;2023-03-01T08:57:01;11.53;;;6.43;;
3141;SDS011;1581;51.568;6.998;2023-03-01T08:59:29;15.90;;;7.70;;
3141;SDS011;1581;51.568;6.998;2023-03-01T09:02:02;14.97;;;7.40;;
3141;SDS011;1581;51.568;6.998;2023-03-01T09:04:30;8.50;;;6.07;;
3141;SDS011;1581;51.568;6.998;2023-03-01T09:06:58;8.80;;;5.77;;
3141;SDS011;1581;51.568;6.998;2023-03-01T09:09:26;8.30;;;5.93;;
3141;SDS011;1581;51.568;6.998;2023-03-01T09:11:55;9.73;;;4.80;;
3141;SDS011;1581;51.568;6.998;2023-03-01T09:14:23;8.93;;;5.10;;
3141;SDS011;1581;51.568;6.998;2023-03-01T09:16:51;5.50;;;4.87;;
3141;SDS011;1581;51.568;6.998;2023-03-01T09:19:19;8.63;;;5.40;;
3141;SDS011;1581;51.568;6.998;2023-03-01T09:21:47;12.43;;;5.37;;
3141;SDS011;1581;51.568;6.998;2023-03-01T09:24:19;8.27;;;5.27;;
3141;SDS011;1581;51.568;6.998;2023-03-01T09:26:48;9.50;;;5.03;;
3141;SDS011;1581;51.568;6.998;2023-03-01T09:29:21;7.07;;;5.07;;
3141;SDS011;1581;51.568;6.998;2023-03-01T09:31:49;5.50;;;4.60;;
3141;SDS011;1581;51.568;6.998;2023-03-01T09:34:22;11.23;;;5.17;;
3141;SDS011;1581;51.568;6.998;2023-03-01T09:36:50;9.70;;;5.10;;
3141;SDS011;1581;51.568;6.998;2023-03-01T09:39:18;6.53;;;4.80;;
3141;SDS011;1581;51.568;6.998;2023-03-01T09:41:48;6.07;;;4.27;;
3141;SDS011;1581;51.568;6.998;2023-03-01T09:44:31;6.70;;;4.97;;
3141;SDS011;1581;51.568;6.998;2023-03-01T09:47:05;8.87;;;4.17;;
3141;SDS011;1581;51.568;6.998;2023-03-01T09:49:39;6.63;;;4.83;;
3141;SDS011;1581;51.568;6.998;2023-03-01T09:52:17;9.43;;;5.13;;
3141;SDS011;1581;51.568;6.998;2023-03-01T09:54:54;11.47;;;5.13;;
3141;SDS011;1581;51.568;6.998;2023-03-01T09:57:26;7.40;;;4.50;;
3141;SDS011;1581;51.568;6.998;2023-03-01T10:00:15;9.90;;;5.07;;
3141;SDS011;1581;51.568;6.998;2023-03-01T10:02:57;12.50;;;6.20;;
3141;SDS011;1581;51.568;6.998;2023-03-01T10:05:38;11.90;;;5.10;;
3141;SDS011;1581;51.568;6.998;2023-03-01T10:08:27;5.43;;;4.20;;
3141;SDS011;1581;51.568;6.998;2023-03-01T10:11:02;10.50;;;5.50;;
3141;SDS011;1581;51.568;6.998;2023-03-01T10:13:46;9.80;;;5.57;;
3141;SDS011;1581;51.568;6.998;2023-03-01T10:16:24;8.30;;;5.10;;
3141;SDS011;1581;51.568;6.998;2023-03-01T10:19:04;6.00;;;3.57;;
3141;SDS011;1581;51.568;6.998;2023-03-01T10:21:36;11.27;;;5.63;;
3141;SDS011;1581;51.568;6.998;2023-03-01T10:24:12;14.00;;;5.23;;
3141;SDS011;1581;51.568;6.998;2023-03-01T10:26:52;9.23;;;5.90;;
3141;SDS011;1581;51.568;6.998;2023-03-01T10:29:23;6.50;;;4.63;;
3141;SDS011;1581;51.568;6.998;2023-03-01T10:31:59;7.30;;;5.60;;
3141;SDS011;1581;51.568;6.998;2023-03-01T10:34:27;10.73;;;4.40;;
3141;SDS011;1581;51.568;6.998;2023-03-01T10:36:58;9.07;;;5.37;;
3141;SDS011;1581;51.568;6.998;2023-03-01T10:39:36;10.33;;;5.40;;
3141;SDS011;1581;51.568;6.998;2023-03-01T10:42:22;10.93;;;5.03;;
3141;SDS011;1581;51.568;6.998;2023-03-01T10:44:56;6.63;;;5.10;;
3141;SDS011;1581;51.568;6.998;2023-03-01T10:47:27;8.10;;;5.50;;
3141;SDS011;1581;51.568;6.998;2023-03-01T10:49:56;9.63;;;5.00;;
3141;SDS011;1581;51.568;6.998;2023-03-01T10:52:27;11.27;;;5.70;;
3141;SDS011;1581;51.568;6.998;2023-03-01T10:54:59;11.83;;;5.47;;
3141;SDS011;1581;51.568;6.998;2023-03-01T10:57:32;7.97;;;5.03;;
3141;SDS011;1581;51.568;6.998;2023-03-01T11:00:16;10.90;;;5.30;;
3141;SDS011;1581;51.568;6.998;2023-03-01T11:03:03;6.10;;;4.57;;
3141;SDS011;1581;51.568;6.998;2023-03-01T11:05:50;10.63;;;4.77;;
3141;SDS011;1581;51.568;6.998;2023-03-01T11:08:30;6.80;;;4.87;;
3141;SDS011;1581;51.568;6.998;2023-03-01T11:11:06;7.47;;;5.47;;
3141;SDS011;1581;51.568;6.998;2023-03-01T11:13:49;6.60;;;5.03;;
3141;SDS011;1581;51.568;6.998;2023-03-01T11:16:33;8.30;;;5.90;;
3141;SDS011;1581;51.568;6.998;2023-03-01T11:19:15;10.67;;;6.00;;
3141;SDS011;1581;51.568;6.998;2023-03-01T11:21:54;8.50;;;5.33;;
3141;SDS011;1581;51.568;6.998;2023-03-01T11:24:33;8.10;;;5.03;;
3141;SDS011;1581;51.568;6.998;2023-03-01T11:27:11;6.00;;;4.50;;
3141;SDS011;1581;51.568;6.998;2023-03-01T11:29:46;11.47;;;4.80;;
3141;SDS011;1581;51.568;6.998;2023-03-01T11:32:23;8.60;;;5.80;;
3141;SDS011;1581;51.568;6.998;2023-03-01T11:35:00;12.37;;;5.80;;
3141;SDS011;1581;51.568;6.998;2023-03-01T11:37:37;6.27;;;4.97;;
3141;SDS011;1581;51.568;6.998;2023-03-01T11:40:12;7.87;;;4.33;;
3141;SDS011;1581;51.568;6.998;2023-03-01T11:42:50;9.17;;;5.50;;
3141;SDS011;1581;51.568;6.998;2023-03-01T11:45:33;7.70;;;4.90;;
3141;SDS011;1581;51.568;6.998;2023-03-01T11:48:27;8.13;;;4.97;;
3141;SDS011;1581;51.568;6.998;2023-03-01T11:51:17;10.90;;;4.80;;
3141;SDS011;1581;51.568;6.998;2023-03-01T11:53:58;8.33;;;5.30;;
3141;SDS011;1581;51.568;6.998;2023-03-01T11:56:45;8.50;;;5.80;;
3141;SDS011;1581;51.568;6.998;2023-03-01T12:02:50;8.93;;;5.33;;
3141;SDS011;1581;51.568;6.998;2023-03-01T12:09:20;8.30;;;4.80;;
3141;SDS011;1581;51.568;6.998;2023-03-01T12:12:28;6.20;;;5.07;;
3141;SDS011;1581;51.568;6.998;2023-03-01T12:15:11;5.53;;;4.20;;
3141;SDS011;1581;51.568;6.998;2023-03-01T12:21:06;5.97;;;5.13;;
3141;SDS011;1581;51.568;6.998;2023-03-01T12:24:12;7.07;;;5.17;;
3141;SDS011;1581;51.568;6.998;2023-03-01T12:27:19;7.80;;;5.10;;
3141;SDS011;1581;51.568;6.998;2023-03-01T12:30:06;6.73;;;5.23;;
3141;SDS011;1581;51.568;6.998;2023-03-01T12:32:55;11.10;;;4.40;;
3141;SDS011;1581;51.568;6.998;2023-03-01T12:35:45;5.47;;;3.73;;
3141;SDS011;1581;51.568;6.998;2023-03-01T12:38:33;7.07;;;4.10;;
3141;SDS011;1581;51.568;6.998;2023-03-01T12:41:23;5.53;;;4.60;;
3141;SDS011;1581;51.568;6.998;2023-03-01T12:44:15;10.90;;;4.23;;
3141;SDS011;1581;51.568;6.998;2023-03-01T12:47:25;17.60;;;7.07;;
3141;SDS011;1581;51.568;6.998;2023-03-01T12:50:05;9.10;;;5.00;;
3141;SDS011;1581;51.568;6.998;2023-03-01T12:52:49;10.07;;;5.10;;
3141;SDS011;1581;51.568;6.998;2023-03-01T12:55:24;6.70;;;4.30;;
3141;SDS011;1581;51.568;6.998;2023-03-01T12:58:02;8.80;;;4.10;;
3141;SDS011;1581;51.568;6.998;2023-03-01T13:00:45;8.00;;;4.47;;
3141;SDS011;1581;51.568;6.998;2023-03-01T13:03:29;6.73;;;4.70;;
3141;SDS011;1581;51.568;6.998;2023-03-01T13:06:16;6.93;;;4.53;;
3141;SDS011;1581;51.568;6.998;2023-03-01T13:08:54;10.03;;;5.20;;
3141;SDS011;1581;51.568;6.998;2023-03-01T13:11:32;6.53;;;4.67;;
3141;SDS011;1581;51.568;6.998;2023-03-01T13:17:29;9.70;;;5.00;;
3141;SDS011;1581;51.568;6.998;2023-03-01T13:22:44;8.87;;;6.00;;
3141;SDS011;1581;51.568;6.998;2023-03-01T13:25:15;6.93;;;5.37;;
3141;SDS011;1581;51.568;6.998;2023-03-01T13:27:45;7.17;;;4.57;;
3141;SDS011;1581;51.568;6.998;2023-03-01T13:33:33;7.53;;;5.47;;
3141;SDS011;1581;51.568;6.998;2023-03-01T13:36:09;6.80;;;5.23;;
3141;SDS011;1581;51.568;6.998;2023-03-01T13:39:03;5.87;;;4.53;;
3141;SDS011;1581;51.568;6.998;2023-03-01T13:41:52;9.60;;;5.60;;
3141;SDS011;1581;51.568;6.998;2023-03-01T13:44:24;9.10;;;4.87;;
3141;SDS011;1581;51.568;6.998;2023-03-01T13:46:57;10.63;;;5.80;;
3141;SDS011;1581;51.568;6.998;2023-03-01T13:49:43;8.23;;;4.97;;
3141;SDS011;1581;51.568;6.998;2023-03-01T13:52:23;7.07;;;5.67;;
3141;SDS011;1581;51.568;6.998;2023-03-01T13:55:13;9.03;;;5.90;;
3141;SDS011;1581;51.568;6.998;2023-03-01T13:57:48;10.73;;;6.13;;
3141;SDS011;1581;51.568;6.998;2023-03-01T14:00:27;10.70;;;6.03;;
3141;SDS011;1581;51.568;6.998;2023-03-01T14:03:02;15.13;;;6.40;;
3141;SDS011;1581;51.568;6.998;2023-03-01T14:05:42;19.23;;;6.53;;
3141;SDS011;1581;51.568;6.998;2023-03-01T14:08:24;11.27;;;5.82;;
3141;SDS011;1581;51.568;6.998;2023-03-01T14:17:12;8.10;;;5.47;;
3141;SDS011;1581;51.568;6.998;2023-03-01T14:19:58;5.75;;;5.25;;
3141;SDS011;1581;51.568;6.998;2023-03-01T14:22:32;5.93;;;5.18;;
3141;SDS011;1581;51.568;6.998;2023-03-01T14:25:05;4.80;;;4.50;;
3141;SDS011;1581;51.568;6.998;2023-03-01T14:27:50;5.45;;;4.95;;
3141;SDS011;1581;51.568;6.998;2023-03-01T14:30:25;4.82;;;4.43;;
3141;SDS011;1581;51.568;6.998;2023-03-01T14:32:58;7.93;;;4.90;;
3141;SDS011;1581;51.568;6.998;2023-03-01T14:35:29;4.90;;;4.60;;
3141;SDS011;1581;51.568;6.998;2023-03-01T14:38:00;5.22;;;4.85;;
3141;SDS011;1581;51.568;6.998;2023-03-01T14:40:29;4.63;;;4.07;;
3141;SDS011;1581;51.568;6.998;2023-03-01T14:43:02;4.82;;;4.43;;
3141;SDS011;1581;51.568;6.998;2023-03-01T14:45:40;4.65;;;4.28;;
3141;SDS011;1581;51.568;6.998;2023-03-01T14:48:15;7.80;;;3.92;;
3141;SDS011;1581;51.568;6.998;2023-03-01T14:50:44;4.50;;;4.20;;
3141;SDS011;1581;51.568;6.998;2023-03-01T14:53:15;5.00;;;4.20;;
3141;SDS011;1581;51.568;6.998;2023-03-01T14:55:48;4.00;;;3.70;;
3141;SDS011;1581;51.568;6.998;2023-03-01T14:58:24;4.60;;;4.20;;
3141;SDS011;1581;51.568;6.998;2023-03-01T15:00:55;4.30;;;4.00;;
3141;SDS011;1581;51.568;6.998;2023-03-01T15:03:27;4.47;;;4.18;;
3141;SDS011;1581;51.568;6.998;2023-03-01T15:06:02;5.10;;;4.60;;
3141;SDS011;1581;51.568;6.998;2023-03-01T15:08:32;4.22;;;3.92;;
3141;SDS011;1581;51.568;6.998;2023-03-01T15:11:02;4.95;;;4.43;;
3141;SDS011;1581;51.568;6.998;2023-03-01T15:13:42;5.38;;;4.70;;
3141;SDS011;1581;51.568;6.998;2023-03-01T15:16:13;10.25;;;4.25;;
3141;SDS011;1581;51.568;6.998;2023-03-01T15:18:43;4.60;;;4.30;;
3141;SDS011;1581;51.568;6.998;2023-03-01T15:21:17;5.90;;;4.13;;
3141;SDS011;1581;51.568;6.998;2023-03-01T15:23:50;5.22;;;4.72;;
3141;SDS011;1581;51.568;6.998;2023-03-01T15:26:22;4.88;;;4.47;;
3141;SDS011;1581;51.568;6.998;2023-03-01T15:28:53;5.03;;;4.65;;
3141;SDS011;1581;51.568;6.998;2023-03-01T15:31:26;6.25;;;5.65;;
3141;SDS011;1581;51.568;6.998;2023-03-01T15:34:19;7.72;;;5.68;;
3141;SDS011;1581;51.568;6.998;2023-03-01T15:36:51;6.10;;;5.60;;
3141;SDS011;1581;51.568;6.998;2023-03-01T15:39:27;7.25;;;5.95;;
3141;SDS011;1581;51.568;6.998;2023-03-01T15:42:02;6.05;;;5.50;;
3141;SDS011;1581;51.568;6.998;2023-03-01T15:44:40;6.70;;;4.95;;
3141;SDS011;1581;51.568;6.998;2023-03-01T15:47:25;9.73;;;5.65;;
3141;SDS011;1581;51.568;6.998;2023-03-01T15:49:55;15.70;;;6.75;;
3141;SDS011;1581;51.568;6.998;2023-03-01T15:52:27;7.53;;;6.18;;
3141;SDS011;1581;51.568;6.998;2023-03-01T15:55:05;8.93;;;6.95;;
3141;SDS011;1581;51.568;6.998;2023-03-01T15:57:44;10.70;;;7.30;;
3141;SDS011;1581;51.568;6.998;2023-03-01T16:00:15;9.13;;;6.53;;
3141;SDS011;1581;51.568;6.998;2023-03-01T16:02:46;9.02;;;5.70;;
3141;SDS011;1581;51.568;6.998;2023-03-01T16:05:17;11.68;;;6.47;;
3141;SDS011;1581;51.568;6.998;2023-03-01T16:07:51;9.88;;;6.43;;
3141;SDS011;1581;51.568;6.998;2023-03-01T16:10:19;10.93;;;6.20;;
3141;SDS011;1581;51.568;6.998;2023-03-01T16:12:48;9.10;;;6.32;;